Time;durP1;ratioP1;P1;durP2;ratioP2;P2;SDS_P1;SDS_P2;PMS_P1;PMS_P2;Temp;Humidity;BMP_temperature;BMP_pressure;BME280_temperature;BME280_humidity;BME280_pressure;Samples;Min_cycle;Max_cycle;Signal;HPM_P1;HPM_P2
2023/05/15 00:01:34;;;;;;;20.52;8.77;;;15.60;99.90;;;;;;5050928;28;20029;-80
2023/05/15 00:04:00;;;;;;;15.48;7.90;;;15.50;99.90;;;;;;5051634;28;20033;-80
2023/05/15 00:06:27;;;;;;;15.18;8.23;;;15.60;99.90;;;;;;5051351;28;20025;-78
2023/05/15 00:08:52;;;;;;;21.58;8.82;;;15.60;99.90;;;;;;5050979;28;20036;-78
2023/05/15 00:11:19;;;;;;;17.95;9.25;;;15.60;99.90;;;;;;5051195;28;20024;-79
2023/05/15 00:13:44;;;;;;;15.73;9.27;;;15.60;99.90;;;;;;5051319;28;20064;-77
2023/05/15 00:16:10;;;;;;;16.45;8.75;;;15.60;99.90;;;;;;5050877;28;20025;-78
2023/05/15 00:18:36;;;;;;;20.45;9.88;;;15.60;99.90;;;;;;5051228;28;20496;-79
2023/05/15 00:21:02;;;;;;;21.50;9.30;;;15.60;99.90;;;;;;5051421;28;20549;-78
2023/05/15 00:23:27;;;;;;;19.35;9.50;;;15.60;99.90;;;;;;5051251;28;20720;-79
2023/05/15 00:25:53;;;;;;;17.85;9.13;;;15.60;99.90;;;;;;5050972;28;20031;-79
2023/05/15 00:28:19;;;;;;;17.05;9.90;;;15.50;99.90;;;;;;5051205;28;20064;-78
2023/05/15 00:30:44;;;;;;;18.20;9.88;;;15.50;99.90;;;;;;5051033;28;20021;-79
2023/05/15 00:33:10;;;;;;;15.80;9.98;;;15.50;99.90;;;;;;5051114;28;20039;-79
2023/05/15 00:35:36;;;;;;;21.77;10.40;;;15.50;99.90;;;;;;5050081;28;20110;-79
2023/05/15 00:38:01;;;;;;;21.40;9.82;;;15.50;99.90;;;;;;5051400;28;20032;-80
2023/05/15 00:40:28;;;;;;;19.05;10.55;;;15.50;99.90;;;;;;5066280;28;20090;-80
2023/05/15 00:42:54;;;;;;;23.48;11.15;;;15.50;99.90;;;;;;5050638;28;20070;-78
2023/05/15 00:45:23;;;;;;;18.15;10.38;;;15.50;99.90;;;;;;5051225;28;20033;-79
2023/05/15 00:47:50;;;;;;;17.98;10.50;;;15.50;99.90;;;;;;5050959;28;20108;-79
2023/05/15 00:50:16;;;;;;;16.75;9.95;;;15.50;99.90;;;;;;5049643;28;20025;-78
2023/05/15 00:52:42;;;;;;;20.67;10.13;;;15.50;99.90;;;;;;5050779;28;20025;-79
2023/05/15 00:55:08;;;;;;;21.33;10.60;;;15.50;99.90;;;;;;5051152;28;20032;-80
2023/05/15 00:57:34;;;;;;;22.88;10.50;;;15.50;99.90;;;;;;5054700;28;20025;-80
2023/05/15 01:00:01;;;;;;;20.58;10.13;;;15.40;99.90;;;;;;5053544;28;20029;-79
2023/05/15 01:02:27;;;;;;;18.02;10.77;;;15.40;99.90;;;;;;5054857;28;20033;-79
2023/05/15 01:04:52;;;;;;;19.90;11.05;;;15.40;99.90;;;;;;5054681;28;20107;-80
2023/05/15 01:07:18;;;;;;;20.55;10.07;;;15.40;99.90;;;;;;5054905;28;20021;-80
2023/05/15 01:09:46;;;;;;;20.60;11.00;;;15.40;99.90;;;;;;5054353;28;20178;-79
2023/05/15 01:12:15;;;;;;;18.50;10.88;;;15.40;99.90;;;;;;5054273;28;20035;-78
2023/05/15 01:14:41;;;;;;;18.80;11.02;;;15.40;99.90;;;;;;5054759;28;20048;-78
2023/05/15 01:17:07;;;;;;;17.65;10.82;;;15.40;99.90;;;;;;5054246;28;20029;-78
2023/05/15 01:19:34;;;;;;;17.00;10.15;;;15.40;99.90;;;;;;5054284;28;20028;-78
2023/05/15 01:22:19;;;;;;;19.70;10.43;;;15.30;99.90;;;;;;5054653;28;20454;-77
2023/05/15 01:25:21;;;;;;;18.10;10.65;;;15.30;99.90;;;;;;5054206;28;20017;-78
2023/05/15 01:27:53;;;;;;;22.23;11.80;;;15.30;99.90;;;;;;5053966;28;20028;-79
2023/05/15 01:30:29;;;;;;;20.60;11.27;;;15.30;99.90;;;;;;5054171;28;20025;-80
2023/05/15 01:33:07;;;;;;;21.88;11.77;;;15.40;99.90;;;;;;5053990;28;20044;-78
2023/05/15 01:35:46;;;;;;;18.00;11.32;;;15.40;99.90;;;;;;5054052;28;20086;-80
2023/05/15 01:38:29;;;;;;;26.40;12.73;;;15.30;99.90;;;;;;5053943;28;20108;-80
2023/05/15 01:41:14;;;;;;;21.75;12.00;;;15.30;99.90;;;;;;5053784;28;20532;-79
2023/05/15 01:43:44;;;;;;;18.98;11.93;;;15.30;99.90;;;;;;5053998;28;20068;-80
2023/05/15 01:46:13;;;;;;;20.10;11.85;;;15.30;99.90;;;;;;5053860;28;20037;-80
2023/05/15 01:48:40;;;;;;;18.38;11.65;;;15.30;99.90;;;;;;5053911;28;20025;-80
2023/05/15 01:51:09;;;;;;;18.23;11.57;;;15.30;99.90;;;;;;5053892;28;20029;-80
2023/05/15 01:53:36;;;;;;;20.48;11.90;;;15.20;99.90;;;;;;5053820;28;20029;-79
2023/05/15 01:56:04;;;;;;;19.08;11.48;;;15.20;99.90;;;;;;5053646;28;20421;-80
2023/05/15 01:58:32;;;;;;;21.08;13.20;;;15.20;99.90;;;;;;5053950;28;20025;-80
2023/05/15 02:00:58;;;;;;;19.70;11.77;;;15.20;99.90;;;;;;5053641;28;20134;-79
2023/05/15 02:03:24;;;;;;;20.17;11.77;;;15.20;99.90;;;;;;5053834;28;20104;-80
2023/05/15 02:05:52;;;;;;;22.38;11.80;;;15.10;99.90;;;;;;5053603;28;20132;-80
2023/05/15 02:08:19;;;;;;;17.98;11.77;;;15.20;99.90;;;;;;5053369;28;20045;-80
2023/05/15 02:10:46;;;;;;;15.80;11.02;;;15.20;99.90;;;;;;5052950;28;20036;-80
2023/05/15 02:13:13;;;;;;;20.40;11.48;;;15.20;99.90;;;;;;5053072;28;20075;-80
2023/05/15 02:15:39;;;;;;;21.42;11.63;;;15.20;99.90;;;;;;5053627;28;20033;-79
2023/05/15 02:18:05;;;;;;;17.08;11.27;;;15.20;99.90;;;;;;5053559;28;20432;-79
2023/05/15 02:20:31;;;;;;;16.58;11.73;;;15.20;99.90;;;;;;5053132;28;20111;-80
2023/05/15 02:22:56;;;;;;;23.10;12.88;;;15.10;99.90;;;;;;5053227;28;20092;-79
2023/05/15 02:25:37;;;;;;;18.58;12.68;;;15.10;99.90;;;;;;5053168;28;20037;-80
2023/05/15 02:28:10;;;;;;;22.75;13.00;;;15.10;99.90;;;;;;5053723;28;20040;-80
2023/05/15 02:30:35;;;;;;;22.70;12.50;;;15.10;99.90;;;;;;5053163;28;20040;-80
2023/05/15 02:33:16;;;;;;;16.63;11.65;;;15.10;99.90;;;;;;5053054;28;20032;-80
2023/05/15 02:35:54;;;;;;;18.42;11.77;;;15.10;99.90;;;;;;5053342;28;20494;-79
2023/05/15 02:38:26;;;;;;;17.63;11.38;;;15.00;99.90;;;;;;5052846;28;20043;-78
2023/05/15 02:40:54;;;;;;;16.25;11.18;;;15.10;99.90;;;;;;5052746;28;20029;-80
2023/05/15 02:43:20;;;;;;;19.13;11.30;;;15.00;99.90;;;;;;5052798;28;20048;-79
2023/05/15 02:45:47;;;;;;;18.23;11.25;;;15.00;99.90;;;;;;5052717;28;20510;-79
2023/05/15 02:48:14;;;;;;;16.83;11.07;;;15.00;99.90;;;;;;5053045;28;20039;-78
2023/05/15 02:50:41;;;;;;;18.45;11.20;;;15.00;99.90;;;;;;5052849;28;20104;-79
2023/05/15 02:53:08;;;;;;;16.63;11.48;;;15.00;99.90;;;;;;5052321;28;20124;-80
2023/05/15 02:55:35;;;;;;;15.98;10.23;;;15.00;99.90;;;;;;5052381;28;20021;-79
2023/05/15 02:58:02;;;;;;;15.32;10.57;;;15.00;99.90;;;;;;5052672;28;20108;-80
2023/05/15 03:00:28;;;;;;;17.25;10.43;;;14.90;99.90;;;;;;5053098;28;20082;-79
2023/05/15 03:02:53;;;;;;;15.82;9.93;;;14.90;99.90;;;;;;5052529;28;20029;-80
2023/05/15 03:05:19;;;;;;;14.65;10.25;;;14.90;99.90;;;;;;5052397;28;20035;-80
2023/05/15 03:07:45;;;;;;;15.55;9.30;;;14.90;99.90;;;;;;5052329;28;20025;-79
2023/05/15 03:10:11;;;;;;;15.13;9.70;;;14.90;99.90;;;;;;5051816;28;20056;-79
2023/05/15 03:12:37;;;;;;;17.25;9.75;;;14.90;99.90;;;;;;5052215;28;20081;-79
2023/05/15 03:15:05;;;;;;;16.30;10.65;;;14.90;99.90;;;;;;5067882;28;20040;-79
2023/05/15 03:17:30;;;;;;;15.32;10.38;;;14.90;99.90;;;;;;5051782;28;20434;-80
2023/05/15 03:19:56;;;;;;;15.40;9.63;;;14.90;99.90;;;;;;5051798;28;20059;-80
2023/05/15 03:22:22;;;;;;;14.25;9.70;;;14.90;99.90;;;;;;5051922;28;20474;-79
2023/05/15 03:24:48;;;;;;;14.15;9.55;;;14.90;99.90;;;;;;5051935;28;20024;-79
2023/05/15 03:27:14;;;;;;;18.15;11.13;;;14.80;99.90;;;;;;5051997;28;20020;-79
2023/05/15 03:29:40;;;;;;;18.02;10.20;;;14.80;99.90;;;;;;5051961;28;20392;-79
2023/05/15 03:32:06;;;;;;;15.18;9.55;;;14.80;99.90;;;;;;5052074;28;20021;-80
2023/05/15 03:34:32;;;;;;;16.27;10.05;;;14.80;99.90;;;;;;5052079;28;20037;-79
2023/05/15 03:36:57;;;;;;;12.38;8.95;;;14.80;99.90;;;;;;5051364;28;20029;-80
2023/05/15 03:39:23;;;;;;;14.00;10.13;;;14.80;99.90;;;;;;5051705;28;20033;-80
2023/05/15 03:41:49;;;;;;;17.25;10.10;;;14.80;99.90;;;;;;5052124;28;20515;-79
2023/05/15 03:44:14;;;;;;;14.57;10.05;;;14.80;99.90;;;;;;5052193;28;20029;-80
2023/05/15 03:46:40;;;;;;;15.73;10.07;;;14.80;99.90;;;;;;5051842;28;20481;-78
2023/05/15 03:49:06;;;;;;;17.23;10.68;;;14.80;99.90;;;;;;5051435;28;20029;-79
2023/05/15 03:51:31;;;;;;;14.30;9.75;;;14.80;99.90;;;;;;5051110;28;20032;-80
2023/05/15 03:53:57;;;;;;;18.13;9.90;;;14.80;99.90;;;;;;5051450;28;20068;-80
2023/05/15 03:56:23;;;;;;;14.35;9.93;;;14.80;99.90;;;;;;5051838;28;20036;-79
2023/05/15 03:58:48;;;;;;;14.35;10.65;;;14.80;99.90;;;;;;5051519;28;20037;-81
2023/05/15 04:01:14;;;;;;;15.30;9.30;;;14.70;99.90;;;;;;5050111;28;20104;-79
2023/05/15 04:03:40;;;;;;;15.50;9.80;;;14.80;99.90;;;;;;5051663;28;20047;-79
2023/05/15 04:06:05;;;;;;;17.25;9.82;;;14.70;99.90;;;;;;5051065;28;20032;-79
2023/05/15 04:08:31;;;;;;;15.15;10.07;;;14.70;99.90;;;;;;5051176;28;20033;-80
2023/05/15 04:10:57;;;;;;;16.52;9.80;;;14.80;99.90;;;;;;5051249;28;20025;-79
2023/05/15 04:13:22;;;;;;;12.65;9.95;;;14.70;99.90;;;;;;5051634;28;20132;-79
2023/05/15 04:15:48;;;;;;;16.05;10.20;;;14.70;99.90;;;;;;5051380;28;20040;-79
2023/05/15 04:18:13;;;;;;;14.90;9.70;;;14.70;99.90;;;;;;5051182;28;20029;-79
2023/05/15 04:20:39;;;;;;;14.20;10.00;;;14.70;99.90;;;;;;5066339;28;20311;-79
2023/05/15 04:23:05;;;;;;;17.38;10.40;;;14.70;99.90;;;;;;5051188;28;20060;-79
2023/05/15 04:25:31;;;;;;;13.35;9.85;;;14.80;99.90;;;;;;5051623;28;20028;-80
2023/05/15 04:27:57;;;;;;;12.40;9.25;;;14.80;99.90;;;;;;5051066;28;20040;-79
2023/05/15 04:30:22;;;;;;;13.95;9.75;;;14.80;99.90;;;;;;5053865;28;20018;-79
2023/05/15 04:32:48;;;;;;;13.60;9.05;;;14.70;99.90;;;;;;5055535;28;20036;-79
2023/05/15 04:35:14;;;;;;;13.90;9.80;;;14.80;99.90;;;;;;5054894;28;20398;-79
2023/05/15 04:37:41;;;;;;;14.57;9.82;;;14.70;99.90;;;;;;5055168;28;20039;-79
2023/05/15 04:40:08;;;;;;;13.65;9.30;;;14.80;99.90;;;;;;5055260;28;20045;-79
2023/05/15 04:42:35;;;;;;;15.98;9.60;;;14.80;99.90;;;;;;5055095;28;20013;-79
2023/05/15 04:45:01;;;;;;;16.88;10.60;;;14.70;99.90;;;;;;5055279;28;20031;-81
2023/05/15 04:47:27;;;;;;;14.90;10.27;;;14.70;99.90;;;;;;5054803;28;20571;-80
2023/05/15 04:49:52;;;;;;;15.90;9.60;;;14.70;99.90;;;;;;5054635;28;20029;-79
2023/05/15 04:52:18;;;;;;;17.02;10.02;;;14.70;99.90;;;;;;5054850;28;20545;-79
2023/05/15 04:54:44;;;;;;;16.80;9.63;;;14.70;99.90;;;;;;5054950;28;20513;-79
2023/05/15 04:57:11;;;;;;;13.27;9.30;;;14.70;99.90;;;;;;5054707;28;20568;-79
2023/05/15 04:59:36;;;;;;;13.90;8.90;;;14.70;99.90;;;;;;5054621;28;20398;-80
2023/05/15 05:02:02;;;;;;;14.15;8.77;;;14.70;99.90;;;;;;5054744;28;20033;-79
2023/05/15 05:04:27;;;;;;;18.10;8.73;;;14.70;99.90;;;;;;5054458;28;20031;-80
2023/05/15 05:06:53;;;;;;;16.45;8.77;;;14.80;99.90;;;;;;5054726;28;20501;-80
2023/05/15 05:09:19;;;;;;;15.55;8.57;;;14.80;99.90;;;;;;5054619;28;20571;-79
2023/05/15 05:11:46;;;;;;;12.70;8.70;;;14.80;99.90;;;;;;5054598;28;20104;-79
2023/05/15 05:14:13;;;;;;;12.98;8.18;;;14.80;99.90;;;;;;5054382;28;20056;-80
2023/05/15 05:16:39;;;;;;;12.82;7.70;;;14.80;99.90;;;;;;5054441;28;20029;-79
2023/05/15 05:19:05;;;;;;;15.68;7.65;;;14.80;99.90;;;;;;5053927;28;20036;-79
2023/05/15 05:21:31;;;;;;;13.65;7.38;;;14.80;99.90;;;;;;5054364;28;20393;-80
2023/05/15 05:23:58;;;;;;;12.30;7.10;;;14.90;99.90;;;;;;5054291;28;20202;-80
2023/05/15 05:26:24;;;;;;;10.95;6.80;;;14.80;99.90;;;;;;5054229;28;20033;-80
2023/05/15 05:28:50;;;;;;;16.73;7.60;;;14.80;99.90;;;;;;5069996;28;20399;-79
2023/05/15 05:31:16;;;;;;;14.63;7.05;;;14.80;99.90;;;;;;5053929;28;20036;-79
2023/05/15 05:33:42;;;;;;;12.13;6.80;;;14.90;99.90;;;;;;5053744;28;20048;-79
2023/05/15 05:36:08;;;;;;;10.15;6.75;;;14.90;99.90;;;;;;5054242;28;20444;-79
2023/05/15 05:38:35;;;;;;;14.20;6.78;;;14.90;99.90;;;;;;5054165;28;20025;-79
2023/05/15 05:41:00;;;;;;;11.70;7.05;;;14.90;99.90;;;;;;5053240;28;20044;-79
2023/05/15 05:43:26;;;;;;;14.25;7.57;;;14.90;99.90;;;;;;5053881;28;20025;-79
2023/05/15 05:45:52;;;;;;;13.18;7.57;;;14.90;99.90;;;;;;5054036;28;20386;-80
2023/05/15 05:48:18;;;;;;;13.45;7.63;;;15.00;99.90;;;;;;5053560;28;20021;-81
2023/05/15 05:50:44;;;;;;;13.10;7.03;;;15.00;99.90;;;;;;5053901;28;20029;-79
2023/05/15 05:53:09;;;;;;;14.93;6.90;;;14.90;99.90;;;;;;5054057;28;20032;-79
2023/05/15 05:55:35;;;;;;;12.95;6.95;;;15.00;99.90;;;;;;5053702;28;20060;-79
2023/05/15 05:58:01;;;;;;;12.57;6.85;;;15.00;99.90;;;;;;5053810;28;20033;-78
2023/05/15 06:00:27;;;;;;;10.18;6.00;;;15.00;99.90;;;;;;5053559;28;20028;-79
2023/05/15 06:02:56;;;;;;;12.13;5.93;;;15.00;99.90;;;;;;5053285;28;20028;-78
2023/05/15 06:05:22;;;;;;;9.98;6.10;;;15.10;99.90;;;;;;5053694;28;20055;-79
2023/05/15 06:07:48;;;;;;;13.88;5.97;;;15.10;99.90;;;;;;5053628;28;20025;-79
2023/05/15 06:10:14;;;;;;;12.73;5.90;;;15.10;99.90;;;;;;5053621;28;20036;-79
2023/05/15 06:12:40;;;;;;;12.23;6.28;;;15.20;99.90;;;;;;5053519;28;20045;-79
2023/05/15 06:15:06;;;;;;;10.77;5.45;;;15.20;99.90;;;;;;5053066;28;20041;-79
2023/05/15 06:17:32;;;;;;;8.90;5.45;;;15.20;99.90;;;;;;5053000;28;20490;-78
2023/05/15 06:19:58;;;;;;;13.35;5.47;;;15.20;99.90;;;;;;5053576;28;20021;-79
2023/05/15 06:22:23;;;;;;;11.18;5.63;;;15.20;99.90;;;;;;5053190;28;20024;-78
2023/05/15 06:24:49;;;;;;;10.50;5.50;;;15.30;99.90;;;;;;5053249;28;20028;-80
2023/05/15 06:27:15;;;;;;;13.15;5.82;;;15.30;99.90;;;;;;5053307;28;20421;-79
2023/05/15 06:29:40;;;;;;;10.38;5.68;;;15.30;99.90;;;;;;5052869;28;20060;-78
2023/05/15 06:32:06;;;;;;;14.27;5.22;;;15.40;99.90;;;;;;5051339;28;20060;-79
2023/05/15 06:34:32;;;;;;;8.23;5.20;;;15.40;99.90;;;;;;5052859;28;20055;-79
2023/05/15 06:36:58;;;;;;;10.30;5.00;;;15.40;99.90;;;;;;5052836;28;20398;-79
2023/05/15 06:39:24;;;;;;;11.65;4.65;;;15.50;99.90;;;;;;5052844;28;20542;-78
2023/05/15 06:41:52;;;;;;;12.77;4.82;;;15.50;99.90;;;;;;5053032;28;20109;-78
2023/05/15 06:44:18;;;;;;;11.85;5.40;;;15.50;99.90;;;;;;5052636;28;20056;-79
2023/05/15 06:46:44;;;;;;;12.13;5.40;;;15.60;99.90;;;;;;5052369;28;20017;-78
2023/05/15 06:49:09;;;;;;;9.02;4.50;;;15.60;99.90;;;;;;5052601;28;20037;-78
2023/05/15 06:51:35;;;;;;;10.68;4.78;;;15.60;99.90;;;;;;5052221;28;20064;-77
2023/05/15 06:54:01;;;;;;;9.98;4.35;;;15.70;99.90;;;;;;5051744;28;20025;-77
2023/05/15 06:56:26;;;;;;;7.30;4.53;;;15.70;99.90;;;;;;5052279;28;20063;-78
2023/05/15 06:58:52;;;;;;;9.02;4.20;;;15.80;99.90;;;;;;5052567;28;20031;-78
2023/05/15 07:01:18;;;;;;;9.45;4.20;;;15.80;99.90;;;;;;5052093;28;20074;-79
2023/05/15 07:03:43;;;;;;;8.13;4.20;;;15.90;99.90;;;;;;5052372;28;20100;-78
2023/05/15 07:06:09;;;;;;;11.68;4.15;;;15.90;99.90;;;;;;5052668;28;20033;-77
2023/05/15 07:08:35;;;;;;;9.07;4.05;;;15.90;99.90;;;;;;5052184;28;20028;-79
2023/05/15 07:11:00;;;;;;;9.10;4.45;;;16.00;99.90;;;;;;5052093;28;20029;-77
2023/05/15 07:13:26;;;;;;;10.15;4.05;;;16.10;99.90;;;;;;5051932;28;20123;-77
2023/05/15 07:15:52;;;;;;;8.32;4.22;;;16.10;99.90;;;;;;5066381;28;20127;-77
2023/05/15 07:18:17;;;;;;;11.82;4.68;;;16.10;99.90;;;;;;5051996;28;20434;-77
2023/05/15 07:20:43;;;;;;;10.48;4.80;;;16.10;99.90;;;;;;5052191;28;20025;-77
2023/05/15 07:23:09;;;;;;;10.00;4.75;;;16.10;99.90;;;;;;5051909;28;20065;-77
2023/05/15 07:25:35;;;;;;;9.57;4.57;;;16.10;99.90;;;;;;5052100;28;20052;-77
2023/05/15 07:28:00;;;;;;;9.20;4.63;;;16.20;99.90;;;;;;5052029;28;20060;-78
2023/05/15 07:30:26;;;;;;;12.07;4.57;;;16.20;99.90;;;;;;5051428;28;20036;-78
2023/05/15 07:32:52;;;;;;;9.10;4.20;;;16.20;99.90;;;;;;5051737;28;20047;-77
2023/05/15 07:35:18;;;;;;;9.80;4.90;;;16.20;99.90;;;;;;5051892;28;20052;-77
2023/05/15 07:37:45;;;;;;;9.45;4.63;;;16.30;99.90;;;;;;5051861;28;20031;-77
2023/05/15 07:40:11;;;;;;;11.15;4.57;;;16.30;99.90;;;;;;5051466;28;20021;-77
2023/05/15 07:42:38;;;;;;;12.02;4.80;;;16.30;99.90;;;;;;5051620;28;20374;-76
2023/05/15 07:45:05;;;;;;;12.85;4.53;;;16.30;99.90;;;;;;5051201;28;20028;-73
2023/05/15 07:47:31;;;;;;;13.38;5.10;;;16.30;99.90;;;;;;5051441;28;20025;-69
2023/05/15 07:49:57;;;;;;;11.35;4.78;;;16.40;99.90;;;;;;5051678;28;20074;-70
2023/05/15 07:52:22;;;;;;;10.68;4.70;;;16.40;99.90;;;;;;5051371;28;20025;-75
2023/05/15 07:54:48;;;;;;;10.38;4.30;;;16.30;99.90;;;;;;5051413;28;20120;-71
2023/05/15 07:57:14;;;;;;;11.07;4.30;;;16.30;99.90;;;;;;5051504;28;20048;-70
2023/05/15 07:59:40;;;;;;;12.93;4.22;;;16.30;99.90;;;;;;5050827;28;20094;-73
2023/05/15 08:02:06;;;;;;;9.70;4.10;;;16.30;99.90;;;;;;5051772;28;20032;-74
2023/05/15 08:04:31;;;;;;;10.70;4.60;;;16.30;99.90;;;;;;5050757;28;20041;-72
2023/05/15 08:06:57;;;;;;;16.67;5.70;;;16.40;99.90;;;;;;5051160;28;20547;-70
2023/05/15 08:09:23;;;;;;;10.30;4.63;;;16.30;99.90;;;;;;5057963;28;20033;-71
2023/05/15 08:11:48;;;;;;;217.45;56.40;;;16.40;99.90;;;;;;5029918;28;20026;-76
2023/05/15 08:14:14;;;;;;;21.60;6.50;;;16.50;99.90;;;;;;5030487;28;20065;-69
2023/05/15 08:16:41;;;;;;;12.90;4.30;;;;;;;;;;5031378;28;20045;-69
2023/05/15 08:19:09;;;;;;;20.23;4.97;;;16.70;99.90;;;;;;5030806;28;20025;-67
2023/05/15 08:21:34;;;;;;;9.73;5.10;;;16.70;99.90;;;;;;5031036;28;20064;-65
2023/05/15 08:24:00;;;;;;;22.15;7.32;;;;;;;;;;5031578;28;20064;-64
2023/05/15 08:26:26;;;;;;;12.30;4.88;;;16.70;99.90;;;;;;5031079;28;20021;-65
2023/05/15 08:28:52;;;;;;;11.70;4.80;;;16.80;99.90;;;;;;5030731;28;20025;-65
2023/05/15 08:31:17;;;;;;;9.07;4.20;;;16.70;99.90;;;;;;5031130;28;20487;-64
2023/05/15 08:33:43;;;;;;;11.10;4.18;;;;;;;;;;5031090;28;20398;-65
2023/05/15 08:36:09;;;;;;;7.70;3.97;;;16.70;99.90;;;;;;5031113;28;20068;-64
2023/05/15 08:38:35;;;;;;;9.02;4.32;;;16.70;99.90;;;;;;5031208;28;20049;-65
2023/05/15 08:41:15;;;;;;;11.32;4.68;;;16.70;99.90;;;;;;5030953;28;20079;-64
2023/05/15 08:43:42;;;;;;;12.10;4.85;;;16.70;99.90;;;;;;5030541;28;20049;-64
2023/05/15 08:46:08;;;;;;;9.55;4.38;;;16.60;99.90;;;;;;5030703;28;20030;-64
2023/05/15 08:48:36;;;;;;;8.20;4.13;;;16.70;99.90;;;;;;5030699;28;20382;-64
2023/05/15 08:51:02;;;;;;;9.35;4.30;;;16.70;99.90;;;;;;5030658;28;20099;-66
2023/05/15 08:53:28;;;;;;;8.13;4.20;;;16.80;99.90;;;;;;5030543;28;20033;-65
2023/05/15 08:55:54;;;;;;;9.25;4.13;;;16.90;99.90;;;;;;5030046;28;20036;-65
2023/05/15 08:58:24;;;;;;;8.88;4.50;;;17.00;99.90;;;;;;5030860;28;20033;-65
2023/05/15 09:00:50;;;;;;;7.90;4.03;;;17.00;99.90;;;;;;5030780;28;20033;-65
2023/05/15 09:03:18;;;;;;;7.85;3.97;;;17.00;99.90;;;;;;5030696;28;20025;-65
2023/05/15 09:05:46;;;;;;;10.30;3.85;;;16.90;99.90;;;;;;5031179;28;20025;-65
2023/05/15 09:08:15;;;;;;;7.50;4.05;;;16.90;99.90;;;;;;5030515;28;20024;-65
2023/05/15 09:10:41;;;;;;;9.60;4.03;;;17.00;99.90;;;;;;5049541;28;20606;-65
2023/05/15 09:13:08;;;;;;;6.70;3.95;;;17.00;99.90;;;;;;5050969;28;20041;-64
2023/05/15 09:15:36;;;;;;;22.70;5.43;;;17.10;99.90;;;;;;5050421;28;20199;-66
2023/05/15 09:18:02;;;;;;;9.15;4.15;;;17.30;99.90;;;;;;5053903;28;20894;-66
2023/05/15 09:20:30;;;;;;;10.38;4.47;;;17.20;99.90;;;;;;5054563;28;20477;-71
2023/05/15 09:22:57;;;;;;;17.02;5.32;;;17.20;99.90;;;;;;5054451;28;20021;-70
2023/05/15 09:25:36;;;;;;;13.07;4.70;;;17.10;99.90;;;;;;5053473;28;20091;-70
2023/05/15 09:28:02;;;;;;;8.65;4.30;;;17.30;99.90;;;;;;5053803;28;20036;-70
2023/05/15 09:30:29;;;;;;;9.20;4.43;;;17.30;99.90;;;;;;5054503;28;20659;-70
2023/05/15 09:33:00;;;;;;;10.73;5.07;;;17.40;99.90;;;;;;5053696;28;20104;-71
2023/05/15 09:35:32;;;;;;;9.30;4.97;;;17.40;99.90;;;;;;5053502;28;20514;-71
2023/05/15 09:37:59;;;;;;;11.52;4.85;;;17.50;99.90;;;;;;5054222;28;20087;-73
2023/05/15 09:40:28;;;;;;;14.55;4.55;;;17.80;99.90;;;;;;5053491;28;20028;-77
2023/05/15 09:42:54;;;;;;;10.30;5.05;;;17.80;99.90;;;;;;5054181;28;20021;-77
2023/05/15 09:45:19;;;;;;;14.65;5.22;;;17.80;99.90;;;;;;5053667;28;20062;-68
2023/05/15 09:47:46;;;;;;;9.43;5.03;;;17.90;99.90;;;;;;5053961;28;20051;-70
2023/05/15 09:50:11;;;;;;;9.55;5.15;;;18.00;99.90;;;;;;5053767;28;20028;-69
2023/05/15 09:52:38;;;;;;;14.15;5.80;;;17.90;99.90;;;;;;5053964;28;20146;-68
2023/05/15 09:55:05;;;;;;;14.77;5.70;;;17.70;99.90;;;;;;5053306;28;20485;-69
2023/05/15 09:57:30;;;;;;;9.77;5.43;;;17.70;99.90;;;;;;5053682;28;20056;-69
2023/05/15 10:00:01;;;;;;;8.40;5.35;;;17.70;99.90;;;;;;5053364;28;20134;-69
2023/05/15 10:02:33;;;;;;;13.10;6.35;;;17.70;99.90;;;;;;5053377;28;20017;-69
2023/05/15 10:04:59;;;;;;;10.05;5.93;;;17.50;99.90;;;;;;5053252;28;20501;-69
2023/05/15 10:07:35;;;;;;;11.15;6.25;;;17.70;99.90;;;;;;5053839;28;20394;-69
2023/05/15 10:10:03;;;;;;;11.65;6.50;;;17.80;99.90;;;;;;5052662;28;20025;-69
2023/05/15 10:12:30;;;;;;;11.18;6.38;;;17.80;99.90;;;;;;5053064;28;20040;-69
2023/05/15 10:14:58;;;;;;;11.65;7.65;;;17.80;99.90;;;;;;5053161;28;20040;-69
2023/05/15 10:17:25;;;;;;;14.63;8.35;;;17.70;99.90;;;;;;5053402;28;20028;-69
2023/05/15 10:19:51;;;;;;;13.40;8.15;;;17.50;99.90;;;;;;5053502;28;20021;-69
2023/05/15 10:22:24;;;;;;;11.15;8.00;;;17.40;99.90;;;;;;5052938;28;20505;-69
2023/05/15 10:25:06;;;;;;;12.13;7.68;;;17.30;99.90;;;;;;5052571;28;20060;-69
2023/05/15 10:27:34;;;;;;;11.07;7.43;;;17.30;99.90;;;;;;5052974;28;20065;-69
2023/05/15 10:30:01;;;;;;;9.27;7.30;;;17.30;99.90;;;;;;5053230;28;20036;-69
2023/05/15 10:32:28;;;;;;;9.35;7.43;;;17.40;99.90;;;;;;5053046;28;20028;-69
2023/05/15 10:34:56;;;;;;;10.85;7.13;;;17.50;99.90;;;;;;5052694;28;20041;-69
2023/05/15 10:37:22;;;;;;;8.73;6.97;;;17.50;99.90;;;;;;5052599;28;20013;-68
2023/05/15 10:39:49;;;;;;;11.07;7.22;;;17.40;99.90;;;;;;5053063;28;20432;-69
2023/05/15 10:42:16;;;;;;;12.68;6.45;;;17.50;99.90;;;;;;5052842;28;20082;-68
2023/05/15 10:44:41;;;;;;;10.38;6.70;;;17.50;99.90;;;;;;5052654;28;20103;-67
2023/05/15 10:47:08;;;;;;;7.18;6.35;;;17.60;99.90;;;;;;5052918;28;20482;-68
2023/05/15 10:49:34;;;;;;;8.82;6.55;;;17.60;99.90;;;;;;5051718;28;20021;-69
2023/05/15 10:52:00;;;;;;;7.85;6.20;;;17.70;99.90;;;;;;5052185;28;20500;-69
2023/05/15 10:54:27;;;;;;;8.55;6.40;;;17.70;99.90;;;;;;5052554;28;20036;-69
2023/05/15 10:56:55;;;;;;;11.10;6.30;;;17.70;99.90;;;;;;5052499;28;20040;-70
2023/05/15 10:59:30;;;;;;;7.18;6.35;;;17.60;99.90;;;;;;5052395;28;20028;-68
2023/05/15 11:01:56;;;;;;;8.00;6.05;;;17.70;99.90;;;;;;5052557;28;20021;-68
2023/05/15 11:04:22;;;;;;;12.20;7.22;;;17.90;99.90;;;;;;5050040;28;20082;-69
2023/05/15 11:06:49;;;;;;;7.57;6.50;;;17.70;99.90;;;;;;5048556;28;20021;-69
2023/05/15 11:09:21;;;;;;;8.48;7.25;;;17.70;99.90;;;;;;5051449;28;20074;-69
2023/05/15 11:11:59;;;;;;;8.02;6.70;;;17.70;99.90;;;;;;5051161;28;20033;-69
2023/05/15 11:14:29;;;;;;;7.93;7.15;;;17.80;99.90;;;;;;5051685;28;20049;-68
2023/05/15 11:16:59;;;;;;;10.77;7.82;;;17.80;99.90;;;;;;5051236;28;20375;-69
2023/05/15 11:19:28;;;;;;;8.93;7.28;;;17.90;99.90;;;;;;5051605;28;20055;-69
2023/05/15 11:21:59;;;;;;;11.80;6.90;;;17.90;99.90;;;;;;5051203;28;20052;-67
2023/05/15 11:24:45;;;;;;;8.02;7.00;;;18.10;99.90;;;;;;5051154;28;20178;-71
2023/05/15 11:27:12;;;;;;;9.15;6.97;;;18.20;99.90;;;;;;5051776;28;20021;-69
2023/05/15 11:30:03;;;;;;;8.57;6.30;;;18.30;99.90;;;;;;5051587;28;20075;-69
2023/05/15 11:32:50;;;;;;;8.30;6.88;;;18.40;99.90;;;;;;5051244;28;20029;-70
2023/05/15 11:35:32;;;;;;;9.80;6.43;;;18.50;99.90;;;;;;5051514;28;20052;-69
2023/05/15 11:38:01;;;;;;;7.70;6.82;;;18.50;99.90;;;;;;5051568;28;20475;-69
2023/05/15 11:40:42;;;;;;;11.52;6.68;;;18.50;99.90;;;;;;5051175;28;20032;-70
2023/05/15 11:43:19;;;;;;;11.05;7.03;;;18.50;99.90;;;;;;5051513;28;20029;-69
2023/05/15 11:45:54;;;;;;;9.40;7.38;;;18.40;99.90;;;;;;5049934;28;20033;-69
2023/05/15 11:48:22;;;;;;;10.13;7.45;;;18.30;99.90;;;;;;5051181;28;20036;-70
2023/05/15 11:50:48;;;;;;;8.13;7.15;;;18.30;99.90;;;;;;5051372;28;20032;-69
2023/05/15 11:53:14;;;;;;;8.90;6.95;;;18.40;99.90;;;;;;5051014;28;20083;-70
2023/05/15 11:55:42;;;;;;;9.75;7.07;;;18.50;99.90;;;;;;5051159;28;20037;-70
2023/05/15 11:58:17;;;;;;;8.48;6.57;;;18.80;99.90;;;;;;5051648;28;20371;-69
2023/05/15 12:00:47;;;;;;;10.52;6.97;;;18.80;99.90;;;;;;5039174;28;20034;-70
2023/05/15 12:03:35;;;;;;;10.85;7.43;;;18.70;99.90;;;;;;5030865;28;20136;-69
2023/05/15 12:06:02;;;;;;;9.13;7.10;;;18.60;99.90;;;;;;5021900;28;20496;-69
2023/05/15 12:08:36;;;;;;;12.93;6.78;;;18.40;99.90;;;;;;5031857;28;20017;-70
2023/05/15 12:11:02;;;;;;;;;;;18.60;99.90;;;;;;5051964;28;20456;-70
2023/05/15 12:13:29;;;;;;;12.23;6.15;;;18.40;99.90;;;;;;5050938;28;20015;-70
2023/05/15 12:15:55;;;;;;;9.63;5.38;;;18.30;99.90;;;;;;5051223;28;20029;-70
2023/05/15 12:18:21;;;;;;;8.82;5.70;;;18.20;99.90;;;;;;5051059;28;20025;-70
2023/05/15 12:20:50;;;;;;;9.55;5.65;;;18.10;99.90;;;;;;5051142;28;20033;-71
2023/05/15 12:23:16;;;;;;;8.48;5.90;;;17.90;99.90;;;;;;5051095;28;20037;-70
2023/05/15 12:25:45;;;;;;;10.27;5.28;;;17.80;99.90;;;;;;5050810;28;20013;-68
2023/05/15 12:28:11;;;;;;;9.57;5.50;;;17.90;99.90;;;;;;5051101;28;20021;-68
2023/05/15 12:30:37;;;;;;;8.45;6.07;;;18.00;99.90;;;;;;5051095;28;20025;-70
2023/05/15 12:33:05;;;;;;;8.57;5.20;;;17.80;99.90;;;;;;5050858;28;20098;-67
2023/05/15 12:35:35;;;;;;;10.73;4.90;;;17.90;99.90;;;;;;5050623;28;20039;-70
2023/05/15 12:38:05;;;;;;;10.52;4.90;;;17.90;99.90;;;;;;5050919;28;20028;-70
2023/05/15 12:40:35;;;;;;;9.38;4.43;;;18.00;99.90;;;;;;5051327;28;20099;-69